• Join FlightAware (Why Join?)
  • Login
  • US Flag 
03:21AM EDT


 

Airport Tracker/Info


-or-


 

Live Flight TrackerFlight Track Log ✈ SKW5500 ✈ 16-Jun-2013 ✈ KASE - KDEN

Flight Track Log - Related Links

Times and Time Zones

All times are in EDT time to prevent confusion due to time zone crossing. See the SKW5500 flight status page for this flight to view local times or setup timezone preferences in your user account.

Time Position Orientation Groundspeed Altitude Reporting Facility
EDT Latitude Longitude Course Direction KTS MPH feet Rate Location/Type
06:15PM 39.2517 -106.8747 104° East 173 199 25,000  Level Denver Center
06:16PM 39.2908 -106.9247 315° West 243 280 10,300 -6,060 Descending Denver Center
06:17PM 39.3142 -107.0047 291° West 249 287 12,500 1,620 Climbing Denver Center
06:18PM 39.4070 -106.7868 101° East  Level FlightAware Approximate
06:18PM 39.3664 -106.9525 38° Northeast 293 337 13,700  Level Denver Center
06:19PM 39.3876 -106.6609 101° East  Level FlightAware Approximate
06:19PM 39.3650 -106.8344 91° East 336 387 15,300  Level Denver Center
06:20PM 39.3639 -106.5363 104° East  Level FlightAware Approximate
06:20PM 39.3603 -106.7022 93° East 364 419 16,800  Level Denver Center
06:22PM 39.3536 -106.5033 92° East 396 456 19,100 1,980 Climbing Denver Center
06:23PM 39.3586 -106.3469 88° East 409 471 21,300 1,740 Climbing Denver Center
06:24PM 39.3653 -106.2053 86° East 413 475 22,700 780 Climbing Denver Center
06:25PM 39.3722 -106.0467 87° East 426 490 23,000 -360 Climbing Denver Center
06:26PM 39.3783 -105.8931 87° East 431 496 22,000 -1,260 Descending Denver Center
06:27PM 39.3856 -105.7458 86° East 416 479 20,500 -1,500 Descending Denver Center
06:28PM 39.3900 -105.6019 88° East 405 466 19,000 -1,320 Descending Denver Center
06:29PM 39.3972 -105.4419 87° East 391 450 17,800 -1,320 Descending Denver Center
06:30PM 39.4025 -105.3183 87° East 353 406 16,300 -1,440 Descending Denver Center
06:31PM 39.4089 -105.1856 86° East 348 400 14,900 -1,320 Descending Denver Center
06:32PM 39.4139 -105.0653 87° East 335 386 13,600 -1,080 Descending Denver Center
06:33PM 39.4211 -104.9419 86° East 324 373 12,700 -1,080 Descending Denver Center
06:34PM 39.4783 -104.8569 49° Northeast 308 354 11,500 -1,260 Descending Denver Center
06:35PM 39.5403 -104.7722 47° Northeast 304 350 10,200 -1,140 Descending Denver Center
06:36PM 39.5994 -104.6978 44° Northeast 299 344 9,200 -1,020 Descending Denver Center